Lexington RPC :: White House 2

liberation: 2021-10-09  11:30     latitude: 36.471017     longitude: -86.678300 25 birds
# LOFT PRING MILES ARRIVAL SPEED ToWin
1 Kastle Loft AU21-KAST-2169 160.831 2021-10-09 15:09:57.919 1286.849 00:00:00
2 Kastle Loft AU21-KAST-2154 160.831 2021-10-09 15:09:59.161 1286.728 00:00:01
3 Kastle Loft AU21-KAST-2150 160.831 2021-10-09 15:10:00.641 1286.584 00:00:03
4 Kastle Loft AU21-KAST-2111 160.831 2021-10-09 15:10:33.711 1283.369 00:00:36
5 Kastle Loft AU21-KAST-2182 160.831 2021-10-09 15:13:28.959 1266.596 00:03:31
6 Kastle Loft AU21-KAST-2115 160.831 2021-10-09 15:13:29.919 1266.505 00:03:32
7 Kastle Loft AU21-KAST-2153 160.831 2021-10-09 15:13:30.028 1266.495 00:03:32
8 Kastle Loft AU21-KAST-2107 160.831 2021-10-09 15:13:47.305 1264.865 00:03:49
9 Kastle Loft AU21-KAST-2124 160.831 2021-10-09 15:16:14.727 1251.129 00:06:17
10 Kastle Loft AU21-KAST-2100 160.831 2021-10-09 16:16:21.380 988.496 01:06:23
11 Tuttle Lane Loft AU21-LKY-0229 147.176 2021-10-09 16:00:51.874 956.307 01:09:34
12 Tuttle Lane Loft AU21-LKY-0276 147.176 2021-10-09 16:01:02.654 955.673 01:09:45
13 Tuttle Lane Loft AU21-LKY-0242 147.176 2021-10-09 16:01:05.252 955.521 01:09:48
14 Tuttle Lane Loft AU21-LKY-0233 147.176 2021-10-09 16:01:25.217 954.349 01:10:08
15 Tuttle Lane Loft AU21-LKY-0249 147.176 2021-10-09 16:02:09.285 951.774 01:10:52
16 Kastle Loft AU21-KAST-2155 160.831 2021-10-09 16:28:49.490 947.251 01:18:52
17 Tuttle Lane Loft AU21-LKY-0248 147.176 2021-10-09 16:06:15.777 937.620 01:14:58
18 Tuttle Lane Loft AU21-LKY-0247 147.176 2021-10-09 16:06:18.242 937.481 01:15:01
19 Tuttle Lane Loft AU21-LKY-0174 147.176 2021-10-09 16:06:19.340 937.419 01:15:02
20 Kastle Loft AU21-KAST-2121 160.831 2021-10-09 16:50:24.856 883.426 01:40:27
21 Kastle Loft AU21-KAST-2187 160.831 2021-10-09 17:59:05.371 727.499 02:49:07
22 Kastle Loft AU21-KAST-2168 160.831 2021-10-09 18:22:58.175 685.431 03:13:00
23 Tuttle Lane Loft AU21-LKY-0232 147.176 2021-10-09 18:30:28.501 616.041 03:39:11
24 Tuttle Lane Loft AU21-LKY-0244 147.176 2021-10-10 12:06:38.257 329.825 09:44:04
Tuttle Lane Loft AU21-LKY-0236 0 0000-00-00 00:00:00.000 0.000 00:00:00